Time;durP1;ratioP1;P1;durP2;ratioP2;P2;SDS_P1;SDS_P2;PMS_P1;PMS_P2;Temp;Humidity;BMP_temperature;BMP_pressure;BME280_temperature;BME280_humidity;BME280_pressure;Samples;Min_cycle;Max_cycle;Signal;HPM_P1;HPM_P2
2023/05/31 00:01:56;;;;;;;;;;;16.50;71.00;;;;;;4935622;28;19929;-75
2023/05/31 00:04:21;;;;;;;;;;;16.50;71.00;;;;;;4947239;28;19988;-74
2023/05/31 00:06:49;;;;;;;;;;;16.50;71.30;;;;;;4942776;28;19954;-75
2023/05/31 00:09:17;;;;;;;;;;;16.50;71.40;;;;;;4950592;28;19974;-74
2023/05/31 00:11:49;;;;;;;;;;;16.40;71.30;;;;;;4940959;28;19918;-77
2023/05/31 00:14:15;;;;;;;;;;;16.40;71.30;;;;;;4931217;28;19910;-77
2023/05/31 00:16:42;;;;;;;;;;;16.30;71.60;;;;;;4934151;28;19918;-77
2023/05/31 00:19:17;;;;;;;;;;;16.30;71.70;;;;;;4941546;28;19934;-77
2023/05/31 00:21:46;;;;;;;;;;;16.30;71.50;;;;;;4951473;28;20322;-77
2023/05/31 00:24:17;;;;;;;;;;;16.20;71.70;;;;;;4947117;28;19919;-77
2023/05/31 00:26:48;;;;;;;;;;;16.20;71.80;;;;;;4934025;28;19922;-77
2023/05/31 00:29:15;;;;;;;;;;;16.20;72.00;;;;;;4940200;28;20352;-77
2023/05/31 00:31:43;;;;;;;;;;;16.20;71.90;;;;;;4943144;28;20439;-77
2023/05/31 00:34:11;;;;;;;;;;;16.20;71.90;;;;;;4945642;28;19954;-77
2023/05/31 00:36:54;;;;;;;;;;;16.10;71.90;;;;;;4946583;28;20749;-77
2023/05/31 00:39:21;;;;;;;;;;;16.20;71.70;;;;;;4949303;28;19917;-76
2023/05/31 00:42:02;;;;;;;;;;;16.10;71.70;;;;;;4952049;28;19921;-77
2023/05/31 00:44:27;;;;;;;;;;;16.10;71.80;;;;;;4933674;28;19918;-76
2023/05/31 00:46:59;;;;;;;;;;;16.00;72.00;;;;;;4932580;28;19917;-77
2023/05/31 00:49:26;;;;;;;;;;;16.00;72.30;;;;;;4931885;28;20364;-77
2023/05/31 00:51:55;;;;;;;;;;;16.00;72.40;;;;;;4928935;28;19910;-76
2023/05/31 00:54:23;;;;;;;;;;;16.00;72.60;;;;;;4944288;28;19911;-77
2023/05/31 00:56:49;;;;;;;;;;;15.90;72.70;;;;;;4929455;28;19914;-76
2023/05/31 00:59:16;;;;;;;;;;;15.80;72.80;;;;;;4949724;28;19915;-77
2023/05/31 01:01:43;;;;;;;;;;;15.80;73.20;;;;;;4937381;28;19926;-76
2023/05/31 01:04:09;;;;;;;;;;;15.80;73.30;;;;;;4947275;28;20012;-77
2023/05/31 01:06:35;;;;;;;;;;;15.70;73.30;;;;;;4947823;28;20108;-76
2023/05/31 01:09:10;;;;;;;;;;;15.70;73.60;;;;;;4948046;28;20009;-76
2023/05/31 01:14:32;;;;;;;;;;;15.60;73.70;;;;;;4946324;28;19925;-77
2023/05/31 01:17:22;;;;;;;;;;;15.60;74.20;;;;;;4950298;28;19925;-77
2023/05/31 01:19:54;;;;;;;;;;;15.60;74.10;;;;;;4951865;28;19922;-77
2023/05/31 01:22:23;;;;;;;;;;;15.50;74.30;;;;;;4946242;28;19925;-76
2023/05/31 01:24:56;;;;;;;;;;;15.50;74.80;;;;;;4946453;28;19972;-77
2023/05/31 01:27:29;;;;;;;;;;;15.40;74.70;;;;;;4939035;28;19917;-76
2023/05/31 01:29:56;;;;;;;;;;;15.40;75.20;;;;;;4937250;28;19910;-77
2023/05/31 01:32:23;;;;;;;;;;;15.30;75.00;;;;;;4945315;28;19910;-77
2023/05/31 01:34:50;;;;;;;;;;;15.30;75.30;;;;;;4931581;28;19910;-77
2023/05/31 01:37:20;;;;;;;;;;;15.30;75.30;;;;;;4946217;28;19911;-76
2023/05/31 01:39:58;;;;;;;;;;;15.30;75.20;;;;;;4947462;28;19961;-77
2023/05/31 01:42:34;;;;;;;;;;;15.30;75.40;;;;;;4946098;28;19914;-77
2023/05/31 01:45:14;;;;;;;;;;;15.30;75.40;;;;;;4945732;28;19946;-76
2023/05/31 01:47:42;;;;;;;;;;;15.30;75.30;;;;;;4951370;28;20319;-77
2023/05/31 01:50:18;;;;;;;;;;;15.20;75.50;;;;;;4951926;28;19926;-77
2023/05/31 01:52:44;;;;;;;;;;;15.20;76.10;;;;;;4943332;28;20014;-77
2023/05/31 01:55:13;;;;;;;;;;;15.10;76.30;;;;;;4949919;28;19921;-77
2023/05/31 01:57:42;;;;;;;;;;;15.10;76.30;;;;;;4945720;28;19911;-76
2023/05/31 02:00:11;;;;;;;;;;;15.10;76.30;;;;;;4927383;28;19914;-79
2023/05/31 02:02:38;;;;;;;;;;;15.00;76.70;;;;;;4947560;28;19917;-77
2023/05/31 02:05:08;;;;;;;;;;;15.00;76.80;;;;;;4951729;28;19921;-77
2023/05/31 02:07:35;;;;;;;;;;;15.00;76.80;;;;;;4954908;28;20291;-77
2023/05/31 02:10:08;;;;;;;;;;;15.00;76.90;;;;;;4945636;28;19934;-76
2023/05/31 02:12:33;;;;;;;;;;;15.00;76.90;;;;;;4949044;28;19910;-76
2023/05/31 02:15:01;;;;;;;;;;;14.90;77.00;;;;;;4944941;28;19919;-77
2023/05/31 02:17:33;;;;;;;;;;;14.90;77.50;;;;;;4932579;28;19985;-76
2023/05/31 02:19:59;;;;;;;;;;;14.90;78.20;;;;;;4947551;28;20013;-76
2023/05/31 02:22:37;;;;;;;;;;;14.80;78.00;;;;;;4946777;28;20328;-77
2023/05/31 02:25:11;;;;;;;;;;;14.90;77.80;;;;;;4925602;28;20524;-77
2023/05/31 02:27:39;;;;;;;;;;;14.80;78.10;;;;;;4930868;28;19911;-77
2023/05/31 02:30:06;;;;;;;;;;;14.80;78.00;;;;;;4945626;28;19969;-77
2023/05/31 02:32:35;;;;;;;;;;;14.70;78.50;;;;;;4929423;28;19911;-76
2023/05/31 02:35:10;;;;;;;;;;;14.70;79.40;;;;;;4927794;28;19919;-77
2023/05/31 02:37:36;;;;;;;;;;;14.80;79.00;;;;;;4930831;28;20290;-76
2023/05/31 02:40:08;;;;;;;;;;;14.70;78.90;;;;;;4928359;28;19968;-76
2023/05/31 02:42:42;;;;;;;;;;;14.70;78.80;;;;;;4938408;28;19961;-77
2023/05/31 02:45:08;;;;;;;;;;;14.70;78.70;;;;;;4951206;28;19910;-76
2023/05/31 02:47:38;;;;;;;;;;;14.70;79.10;;;;;;4933674;28;19958;-77
2023/05/31 02:50:05;;;;;;;;;;;14.70;78.90;;;;;;4928742;28;20360;-77
2023/05/31 02:52:40;;;;;;;;;;;14.70;79.20;;;;;;4932657;28;20360;-77
2023/05/31 02:55:06;;;;;;;;;;;14.60;79.40;;;;;;4939418;28;19950;-77
2023/05/31 02:57:37;;;;;;;;;;;14.60;80.10;;;;;;4942134;28;20359;-76
2023/05/31 03:00:25;;;;;;;;;;;14.50;80.90;;;;;;4943142;28;19997;-77
2023/05/31 03:02:51;;;;;;;;;;;14.60;80.00;;;;;;4950515;28;19910;-77
2023/05/31 03:05:20;;;;;;;;;;;14.60;79.60;;;;;;4945511;28;19911;-77
2023/05/31 03:07:53;;;;;;;;;;;14.60;79.90;;;;;;4945771;28;19914;-76
2023/05/31 03:10:25;;;;;;;;;;;14.60;80.10;;;;;;4923732;28;19937;-77
2023/05/31 03:12:52;;;;;;;;;;;14.50;81.20;;;;;;4940628;28;19911;-76
2023/05/31 03:15:18;;;;;;;;;;;14.40;81.40;;;;;;4942686;28;19912;-77
2023/05/31 03:17:46;;;;;;;;;;;14.40;81.10;;;;;;4935710;28;19918;-77
2023/05/31 03:20:12;;;;;;;;;;;14.40;80.90;;;;;;4946879;28;19923;-77
2023/05/31 03:22:41;;;;;;;;;;;14.40;80.50;;;;;;4942695;28;19914;-76
2023/05/31 03:25:07;;;;;;;;;;;14.50;80.70;;;;;;4931622;29;20009;-76
2023/05/31 03:27:34;;;;;;;;;;;14.40;80.70;;;;;;4941932;28;20010;-76
2023/05/31 03:30:00;;;;;;;;;;;14.40;80.70;;;;;;4932070;28;20016;-77
2023/05/31 03:32:27;;;;;;;;;;;14.40;80.80;;;;;;4939662;28;20005;-77
2023/05/31 03:34:52;;;;;;;;;;;14.40;81.00;;;;;;4946115;28;19910;-76
2023/05/31 03:37:21;;;;;;;;;;;14.40;80.90;;;;;;4934055;28;19925;-77
2023/05/31 03:39:48;;;;;;;;;;;14.40;80.80;;;;;;4951230;28;20027;-77
2023/05/31 03:42:16;;;;;;;;;;;14.40;81.00;;;;;;4933210;28;20252;-76
2023/05/31 03:44:47;;;;;;;;;;;14.50;80.80;;;;;;4945943;28;19933;-77
2023/05/31 03:47:17;;;;;;;;;;;14.50;80.70;;;;;;4927725;28;19934;-77
2023/05/31 03:49:43;;;;;;;;;;;14.60;80.70;;;;;;4949239;28;20155;-76
2023/05/31 03:52:20;;;;;;;;;;;14.70;80.40;;;;;;4935721;28;19997;-77
2023/05/31 03:54:46;;;;;;;;;;;14.80;80.70;;;;;;4950686;28;19910;-76
2023/05/31 03:57:12;;;;;;;;;;;14.90;79.80;;;;;;4931738;28;20555;-76
2023/05/31 03:59:39;;;;;;;;;;;15.00;79.70;;;;;;4953929;28;19922;-77
2023/05/31 04:02:11;;;;;;;;;;;15.00;79.80;;;;;;4951738;28;19918;-76
2023/05/31 04:04:38;;;;;;;;;;;15.10;79.70;;;;;;4937426;28;19911;-76
2023/05/31 04:07:10;;;;;;;;;;;15.20;79.60;;;;;;4935538;28;19969;-76
2023/05/31 04:09:43;;;;;;;;;;;15.20;79.40;;;;;;4942407;28;19989;-76
2023/05/31 04:12:11;;;;;;;;;;;15.30;79.20;;;;;;4932698;28;19965;-76
2023/05/31 04:14:43;;;;;;;;;;;15.40;78.80;;;;;;4945752;28;19961;-76
2023/05/31 04:17:14;;;;;;;;;;;15.50;78.90;;;;;;4948312;28;19914;-76
2023/05/31 04:19:42;;;;;;;;;;;15.60;78.60;;;;;;4951339;28;19966;-77
2023/05/31 04:22:07;;;;;;;;;;;15.70;78.90;;;;;;4950906;28;19924;-77
2023/05/31 04:24:35;;;;;;;;;;;15.70;78.60;;;;;;4946508;28;19926;-79
2023/05/31 04:27:02;;;;;;;;;;;15.80;78.70;;;;;;4931641;28;20364;-77
2023/05/31 04:29:29;;;;;;;;;;;15.90;78.60;;;;;;4945486;28;19922;-76
2023/05/31 04:31:57;;;;;;;;;;;16.00;78.50;;;;;;4931286;28;19997;-76
2023/05/31 04:34:22;;;;;;;;;;;16.20;78.20;;;;;;4932388;28;19910;-77
2023/05/31 04:36:49;;;;;;;;;;;16.30;77.20;;;;;;4937604;28;19965;-78
2023/05/31 04:39:21;;;;;;;;;;;16.50;77.40;;;;;;4932749;28;19922;-78
2023/05/31 04:41:50;;;;;;;;;;;16.60;77.20;;;;;;4932148;29;19910;-76
2023/05/31 04:44:19;;;;;;;;;;;16.80;76.50;;;;;;4949522;28;19938;-76
2023/05/31 04:46:44;;;;;;;;;;;16.90;76.20;;;;;;4947721;28;20315;-76
2023/05/31 04:49:15;;;;;;;;;;;17.00;76.10;;;;;;4932392;28;19926;-75
2023/05/31 04:51:45;;;;;;;;;;;17.10;75.40;;;;;;4927100;28;20147;-75
2023/05/31 04:54:20;;;;;;;;;;;17.30;75.20;;;;;;4949908;28;19966;-76
2023/05/31 04:56:52;;;;;;;;;;;17.40;75.20;;;;;;4946542;28;19922;-76
2023/05/31 04:59:20;;;;;;;;;;;17.50;75.10;;;;;;4939613;28;20004;-75
2023/05/31 05:01:45;;;;;;;;;;;17.50;74.30;;;;;;4935822;28;19925;-75
2023/05/31 05:04:16;;;;;;;;;;;17.60;79.30;;;;;;4951329;28;19918;-75
2023/05/31 05:06:41;;;;;;;;;;;17.70;76.50;;;;;;4935783;28;20054;-76
2023/05/31 05:09:09;;;;;;;;;;;17.80;75.70;;;;;;4952556;28;20009;-76
2023/05/31 05:11:48;;;;;;;;;;;18.00;75.20;;;;;;4947669;28;20566;-76
2023/05/31 05:14:18;;;;;;;;;;;18.10;75.90;;;;;;4933895;28;19953;-76
2023/05/31 05:16:47;;;;;;;;;;;18.20;74.90;;;;;;4933036;28;19945;-75
2023/05/31 05:19:13;;;;;;;;;;;18.30;74.50;;;;;;4948730;28;20320;-71
2023/05/31 05:21:38;;;;;;;;;;;18.20;74.70;;;;;;4950523;28;19918;-72
2023/05/31 05:24:04;;;;;;;;;;;18.50;74.60;;;;;;4926862;28;19915;-72
2023/05/31 05:26:29;;;;;;;;;;;18.60;73.30;;;;;;4932875;28;19922;-72
2023/05/31 05:28:56;;;;;;;;;;;18.70;74.10;;;;;;4944674;28;19914;-72
2023/05/31 05:31:51;;;;;;;;;;;18.70;73.10;;;;;;4962925;28;19957;-82
2023/05/31 05:34:22;;;;;;;;;;;18.90;72.20;;;;;;4961036;28;19910;-81
2023/05/31 05:37:00;;;;;;;;;;;18.90;72.60;;;;;;4973414;28;19911;-82
2023/05/31 05:39:31;;;;;;;;;;;19.10;71.20;;;;;;4975801;28;19902;-82
2023/05/31 05:42:05;;;;;;;;;;;19.40;71.60;;;;;;4958917;29;19910;-82
2023/05/31 05:44:35;;;;;;;;;;;19.70;70.80;;;;;;4964333;28;20324;-82
2023/05/31 05:47:10;;;;;;;;;;;19.90;69.80;;;;;;4968362;29;19974;-81
2023/05/31 05:49:35;;;;;;;;;;;20.00;69.80;;;;;;4950792;29;19945;-81
2023/05/31 05:52:07;;;;;;;;;;;20.20;70.40;;;;;;4967664;29;19922;-82
2023/05/31 05:54:39;;;;;;;;;;;20.30;69.60;;;;;;4954311;29;19911;-81
2023/05/31 05:57:06;;;;;;;;;;;20.80;68.40;;;;;;4960354;28;19910;-81
2023/05/31 05:59:41;;;;;;;;;;;21.20;66.90;;;;;;4960699;28;20411;-81
2023/05/31 06:02:11;;;;;;;;;;;22.10;66.10;;;;;;4936350;28;20447;-83
2023/05/31 06:04:41;;;;;;;;;;;23.60;63.00;;;;;;4944330;28;19922;-85
2023/05/31 06:07:18;;;;;;;;;;;25.20;60.40;;;;;;4953282;28;19933;-82
2023/05/31 06:09:45;;;;;;;;;;;26.30;57.80;;;;;;4946396;28;20288;-81
2023/05/31 06:12:14;;;;;;;;;;;26.60;57.30;;;;;;4958051;28;20034;-81
2023/05/31 06:14:45;;;;;;;;;;;26.40;57.40;;;;;;4946674;29;19914;-81
2023/05/31 06:17:17;;;;;;;;;;;26.40;57.80;;;;;;4947499;28;20524;-81
2023/05/31 06:19:44;;;;;;;;;;;25.90;57.90;;;;;;4940110;29;20260;-81
2023/05/31 06:22:41;;;;;;;;;;;25.60;57.90;;;;;;4967543;28;19943;-81
2023/05/31 06:25:07;;;;;;;;;;;26.40;57.50;;;;;;4941548;29;19911;-81
2023/05/31 06:27:35;;;;;;;;;;;26.40;56.60;;;;;;4952760;28;19910;-84
2023/05/31 06:30:09;;;;;;;;;;;27.20;57.30;;;;;;4942015;28;20004;-84
2023/05/31 06:32:35;;;;;;;;;;;28.30;54.50;;;;;;4957674;28;19910;-81
2023/05/31 06:35:13;;;;;;;;;;;28.20;54.30;;;;;;4939361;28;19914;-81
2023/05/31 06:37:41;;;;;;;;;;;29.00;54.60;;;;;;4956804;28;19921;-81
2023/05/31 06:40:15;;;;;;;;;;;29.00;53.60;;;;;;4958576;28;19914;-80
2023/05/31 06:42:48;;;;;;;;;;;27.10;55.10;;;;;;4962568;28;19926;-82
2023/05/31 06:45:19;;;;;;;;;;;27.70;55.80;;;;;;4950568;28;19914;-83
2023/05/31 06:47:46;;;;;;;;;;;28.00;54.00;;;;;;4948197;28;20002;-83
2023/05/31 06:50:14;;;;;;;;;;;27.20;56.10;;;;;;4945543;28;19918;-81
2023/05/31 06:52:55;;;;;;;;;;;26.80;54.90;;;;;;4931442;29;19968;-81
2023/05/31 06:55:22;;;;;;;;;;;26.10;56.80;;;;;;4945952;28;19957;-84
2023/05/31 06:57:47;;;;;;;;;;;27.60;56.20;;;;;;4943771;28;19966;-84
2023/05/31 07:00:13;;;;;;;;;;;28.50;55.10;;;;;;4951042;28;19922;-83
2023/05/31 07:02:40;;;;;;;;;;;30.10;52.70;;;;;;4927078;28;20033;-84
2023/05/31 07:05:07;;;;;;;;;;;31.60;51.20;;;;;;4931221;28;19997;-84
2023/05/31 07:07:37;;;;;;;;;;;33.20;49.80;;;;;;4940331;28;20396;-85
2023/05/31 07:10:05;;;;;;;;;;;30.90;50.60;;;;;;4942807;28;19985;-80
2023/05/31 07:12:32;;;;;;;;;;;26.60;54.60;;;;;;4951389;28;19974;-80
2023/05/31 07:14:57;;;;;;;;;;;25.30;57.00;;;;;;4926344;28;19930;-80
2023/05/31 07:17:23;;;;;;;;;;;23.50;60.20;;;;;;4949181;28;19914;-79
2023/05/31 07:19:48;;;;;;;;;;;22.50;62.60;;;;;;4949679;28;19918;-80
2023/05/31 07:22:15;;;;;;;;;;;22.50;63.30;;;;;;4930871;29;19911;-80
2023/05/31 07:24:42;;;;;;;;;;;22.30;63.70;;;;;;4939320;28;19926;-81
2023/05/31 07:27:08;;;;;;;;;;;22.90;63.00;;;;;;4928870;28;19914;-80
2023/05/31 07:29:36;;;;;;;;;;;23.40;62.90;;;;;;4932727;28;20311;-80
2023/05/31 07:32:03;;;;;;;;;;;23.40;61.70;;;;;;4949093;28;19911;-80
2023/05/31 07:34:29;;;;;;;;;;;23.20;62.10;;;;;;4948738;28;19938;-81
2023/05/31 07:37:03;;;;;;;;;;;23.50;61.60;;;;;;4954380;28;19910;-79
2023/05/31 07:39:31;;;;;;;;;;;23.80;61.20;;;;;;4946234;28;21365;-80
2023/05/31 07:42:06;;;;;;;;;;;23.60;61.00;;;;;;4931737;28;19914;-79
2023/05/31 07:44:33;;;;;;;;;;;23.60;61.40;;;;;;4947811;28;20356;-80
2023/05/31 07:46:59;;;;;;;;;;;23.50;62.50;;;;;;4953460;28;19972;-80
2023/05/31 07:49:26;;;;;;;;;;;24.00;61.60;;;;;;4937409;28;20261;-80
2023/05/31 07:51:53;;;;;;;;;;;24.80;60.30;;;;;;4951643;28;19910;-80
2023/05/31 07:54:28;;;;;;;;;;;24.40;61.10;;;;;;4946589;28;20201;-81
2023/05/31 07:57:06;;;;;;;;;;;26.10;59.80;;;;;;4947010;28;19996;-81
2023/05/31 07:59:39;;;;;;;;;;;27.90;57.40;;;;;;4951448;28;19921;-84
2023/05/31 08:02:07;;;;;;;;;;;30.70;54.80;;;;;;4929516;28;19929;-83
2023/05/31 08:04:33;;;;;;;;;;;31.20;53.60;;;;;;4952658;28;19930;-83
2023/05/31 08:07:06;;;;;;;;;;;31.70;53.30;;;;;;4943569;28;19937;-83
2023/05/31 08:09:32;;;;;;;;;;;33.50;51.00;;;;;;4929937;28;19910;-83
2023/05/31 08:11:58;;;;;;;;;;;34.90;49.00;;;;;;4935753;28;19925;-85
2023/05/31 08:14:33;;;;;;;;;;;35.20;48.40;;;;;;4956327;28;19914;-84
2023/05/31 08:16:58;;;;;;;;;;;35.10;48.00;;;;;;4950077;28;20299;-84
2023/05/31 08:19:30;;;;;;;;;;;34.80;49.20;;;;;;4934357;28;19914;-86
2023/05/31 08:21:56;;;;;;;;;;;34.00;48.10;;;;;;4942433;28;19910;-84
2023/05/31 08:24:24;;;;;;;;;;;33.30;50.60;;;;;;4944279;28;19910;-84
2023/05/31 08:26:50;;;;;;;;;;;34.60;49.60;;;;;;4945770;28;19914;-83
2023/05/31 08:29:30;;;;;;;;;;;35.10;48.10;;;;;;4951330;28;19910;-84
2023/05/31 08:31:55;;;;;;;;;;;32.30;50.40;;;;;;4943176;28;20264;-83
2023/05/31 08:34:21;;;;;;;;;;;31.00;52.40;;;;;;4926762;29;19935;-82
2023/05/31 08:36:49;;;;;;;;;;;33.00;50.60;;;;;;4943341;28;20072;-83
2023/05/31 08:39:14;;;;;;;;;;;35.10;48.60;;;;;;4937134;28;20000;-82
2023/05/31 08:42:00;;;;;;;;;;;37.10;47.70;;;;;;4949379;28;20032;-82
2023/05/31 08:44:27;;;;;;;;;;;37.50;46.10;;;;;;4944088;28;19970;-82
2023/05/31 08:46:57;;;;;;;;;;;37.90;46.60;;;;;;4928249;28;20683;-83
2023/05/31 08:49:23;;;;;;;;;;;38.50;45.60;;;;;;4932187;28;20327;-82
2023/05/31 08:51:48;;;;;;;;;;;39.10;45.40;;;;;;4939120;28;19914;-83
2023/05/31 08:54:16;;;;;;;;;;;39.50;44.70;;;;;;4925305;28;19910;-82
2023/05/31 08:56:43;;;;;;;;;;;40.00;44.80;;;;;;4950843;28;19925;-83
2023/05/31 08:59:11;;;;;;;;;;;39.70;44.00;;;;;;4928429;28;20511;-83
2023/05/31 09:01:37;;;;;;;;;;;39.50;43.90;;;;;;4926224;28;19957;-83
2023/05/31 09:04:06;;;;;;;;;;;39.80;44.20;;;;;;4926668;28;20000;-83
2023/05/31 09:06:32;;;;;;;;;;;40.00;43.90;;;;;;4923310;28;19926;-83
2023/05/31 09:09:00;;;;;;;;;;;39.10;44.60;;;;;;4932776;28;19914;-83
2023/05/31 09:11:27;;;;;;;;;;;38.60;43.80;;;;;;4928948;28;19914;-84
2023/05/31 09:13:55;;;;;;;;;;;37.90;45.00;;;;;;4944964;28;20251;-83
2023/05/31 09:16:23;;;;;;;;;;;38.10;44.70;;;;;;4932923;28;20364;-82
2023/05/31 09:18:59;;;;;;;;;;;38.70;44.90;;;;;;4944896;28;19922;-82
2023/05/31 09:21:38;;;;;;;;;;;38.80;44.00;;;;;;4943638;28;19910;-81
2023/05/31 09:24:06;;;;;;;;;;;38.70;43.90;;;;;;4930836;28;19911;-81
2023/05/31 09:26:52;;;;;;;;;;;37.10;43.70;;;;;;4947939;28;20336;-83
2023/05/31 09:29:20;;;;;;;;;;;34.20;47.10;;;;;;4929059;28;19917;-82
2023/05/31 09:32:13;;;;;;;;;;;34.40;47.50;;;;;;4921264;28;19910;-83
2023/05/31 09:34:43;;;;;;;;;;;35.40;46.10;;;;;;4923125;28;20005;-87
2023/05/31 09:37:25;;;;;;;;;;;31.60;47.50;;;;;;4931686;29;20029;-86
2023/05/31 09:40:00;;;;;;;;;;;30.50;50.60;;;;;;4945396;28;19922;-83
2023/05/31 09:42:28;;;;;;;;;;;30.80;50.20;;;;;;4927684;28;19911;-83
2023/05/31 09:45:10;;;;;;;;;;;32.60;48.80;;;;;;4949193;28;19958;-84
2023/05/31 09:47:40;;;;;;;;;;;33.50;48.80;;;;;;4927137;28;19914;-83
2023/05/31 09:50:10;;;;;;;;;;;34.40;47.50;;;;;;4927841;28;20010;-84
2023/05/31 09:52:38;;;;;;;;;;;35.50;46.90;;;;;;4946184;28;19910;-83
2023/05/31 09:55:10;;;;;;;;;;;36.20;45.80;;;;;;4933267;28;19911;-84
2023/05/31 09:57:43;;;;;;;;;;;34.80;47.00;;;;;;4936848;28;19922;-84
2023/05/31 10:00:17;;;;;;;;;;;33.70;47.70;;;;;;4934870;28;19934;-89
2023/05/31 10:02:44;;;;;;;;;;;30.50;49.90;;;;;;4932206;28;19998;-88
2023/05/31 10:05:11;;;;;;;;;;;29.90;52.40;;;;;;4936416;28;19914;-88
2023/05/31 10:07:39;;;;;;;;;;;29.40;52.90;;;;;;4927935;29;19937;-87
2023/05/31 10:10:06;;;;;;;;;;;30.40;51.30;;;;;;4942201;29;19927;-84
2023/05/31 10:12:34;;;;;;;;;;;31.90;51.30;;;;;;4943715;28;19953;-84
2023/05/31 10:15:08;;;;;;;;;;;34.00;49.60;;;;;;4942413;28;19914;-84
2023/05/31 10:17:38;;;;;;;;;;;33.50;50.00;;;;;;4929359;28;19916;-85
2023/05/31 10:20:09;;;;;;;;;;;34.90;49.20;;;;;;4929468;28;20135;-83
2023/05/31 10:22:40;;;;;;;;;;;34.80;47.80;;;;;;4931744;28;19962;-84
2023/05/31 10:25:10;;;;;;;;;;;34.40;49.10;;;;;;4924607;28;19910;-85
2023/05/31 10:27:41;;;;;;;;;;;34.60;47.50;;;;;;4929059;29;19997;-85
2023/05/31 10:30:09;;;;;;;;;;;34.50;48.50;;;;;;4942934;28;20030;-85
2023/05/31 10:32:52;;;;;;;;;;;35.80;46.90;;;;;;4927071;29;19910;-85
2023/05/31 10:35:20;;;;;;;;;;;36.00;47.70;;;;;;4928666;29;19977;-87
2023/05/31 10:37:53;;;;;;;;;;;33.50;48.90;;;;;;4925248;29;19911;-89
2023/05/31 10:40:23;;;;;;;;;;;32.00;51.10;;;;;;4946681;28;19918;-86
2023/05/31 10:42:56;;;;;;;;;;;32.70;50.00;;;;;;4945232;28;19985;-85
2023/05/31 10:45:26;;;;;;;;;;;34.50;49.10;;;;;;4928039;28;19917;-85
2023/05/31 10:48:06;;;;;;;;;;;33.80;48.90;;;;;;4931534;28;19918;-86
2023/05/31 10:56:33;;;;;;;;;;;31.20;50.90;;;;;;4943274;28;19997;-87
2023/05/31 10:59:07;;;;;;;;;;;29.50;52.40;;;;;;4922690;28;19933;-85
2023/05/31 11:01:35;;;;;;;;;;;28.70;53.00;;;;;;4944739;28;20826;-86
2023/05/31 11:04:01;;;;;;;;;;;28.40;54.20;;;;;;4928125;28;19918;-86
2023/05/31 11:06:27;;;;;;;;;;;28.50;53.70;;;;;;4931042;28;19937;-85
2023/05/31 11:08:59;;;;;;;;;;;28.70;54.10;;;;;;4932950;28;19910;-83
2023/05/31 11:16:48;;;;;;;;;;;26.20;56.60;;;;;;5024639;23;19930;-80
2023/05/31 11:22:07;;;;;;;;;;;26.70;55.70;;;;;;4976675;28;19909;-81
2023/05/31 11:24:39;;;;;;;;;;;27.20;56.20;;;;;;4967293;29;19917;-80
2023/05/31 11:40:14;;;;;;;;;;;27.10;57.60;;;;;;5084952;23;20402;-83
2023/05/31 11:42:42;;;;;;;;;;;27.80;55.80;;;;;;4964529;28;19917;-83
2023/05/31 11:45:10;;;;;;;;;;;27.80;55.80;;;;;;4948404;28;20279;-85
2023/05/31 11:56:41;;;;;;;;;;;26.90;56.70;;;;;;5056913;23;19914;-81
2023/05/31 12:20:52;;;;;;;;;;;26.30;55.50;;;;;;5208510;23;19949;-82
2023/05/31 12:31:25;;;;;;;;;;;26.30;56.40;;;;;;5587132;23;19925;-81
2023/05/31 12:49:43;;;;;;;;;;;26.20;57.00;;;;;;5956292;23;19920;-81
2023/05/31 12:52:28;;;;;;;;;;;26.60;56.70;;;;;;4981119;28;19915;-81
2023/05/31 12:54:55;;;;;;;;;;;26.60;55.90;;;;;;5515608;23;21503;-79
2023/05/31 13:00:09;;;;;;;;;;;26.60;56.80;;;;;;5720078;23;19946;-81
2023/05/31 13:02:43;;;;;;;;;;;26.60;56.10;;;;;;4968665;28;19902;-81
2023/05/31 13:11:03;;;;;;;;;;;27.80;54.20;;;;;;5072944;23;19996;-86
2023/05/31 13:13:32;;;;;;;;;;;27.90;53.80;;;;;;4949730;28;19925;-88
2023/05/31 13:15:57;;;;;;;;;;;27.90;54.70;;;;;;4955693;28;19987;-71
2023/05/31 13:18:23;;;;;;;;;;;27.60;55.90;;;;;;4939659;28;19910;-74
2023/05/31 13:20:48;;;;;;;;;;;27.20;56.20;;;;;;4944152;28;19946;-72
2023/05/31 13:23:15;;;;;;;;;;;26.70;57.20;;;;;;4935924;28;20250;-73
2023/05/31 13:25:43;;;;;;;;;;;26.30;58.40;;;;;;4937741;28;20640;-73
2023/05/31 13:28:08;;;;;;;;;;;26.60;57.80;;;;;;4935754;28;19997;-73
2023/05/31 13:30:36;;;;;;;;;;;27.00;57.20;;;;;;4943646;28;20005;-73
2023/05/31 13:33:02;;;;;;;;;;;27.10;56.40;;;;;;4949823;28;19911;-72
2023/05/31 13:35:27;;;;;;;;;;;27.10;57.60;;;;;;4931914;28;20452;-72
2023/05/31 13:37:53;;;;;;;;;;;26.70;56.90;;;;;;4951107;28;19942;-73
2023/05/31 13:40:19;;;;;;;;;;;26.10;56.50;;;;;;4950684;28;19946;-73
2023/05/31 13:42:45;;;;;;;;;;;25.70;57.50;;;;;;4938403;28;20014;-74
2023/05/31 13:45:13;;;;;;;;;;;25.90;57.50;;;;;;4933311;28;19973;-74
2023/05/31 13:47:39;;;;;;;;;;;25.90;58.00;;;;;;4935776;28;19917;-73
2023/05/31 13:50:06;;;;;;;;;;;25.80;58.20;;;;;;4944241;28;19919;-72
2023/05/31 13:52:32;;;;;;;;;;;25.60;58.30;;;;;;4933530;28;20020;-73
2023/05/31 13:54:59;;;;;;;;;;;25.70;59.00;;;;;;4943475;28;19918;-75
2023/05/31 13:57:26;;;;;;;;;;;25.90;58.00;;;;;;4951114;28;19930;-72
2023/05/31 13:59:57;;;;;;;;;;;26.00;58.00;;;;;;4952755;28;19957;-73
2023/05/31 14:02:23;;;;;;;;;;;25.70;57.20;;;;;;4941017;28;19919;-74
2023/05/31 14:04:51;;;;;;;;;;;25.70;57.90;;;;;;4950438;28;19910;-74
2023/05/31 14:07:17;;;;;;;;;;;25.80;58.40;;;;;;4937567;28;19921;-73
2023/05/31 14:09:43;;;;;;;;;;;25.90;58.70;;;;;;4931465;28;19926;-70
2023/05/31 14:12:11;;;;;;;;;;;25.60;57.40;;;;;;4934864;28;19911;-74
2023/05/31 14:14:36;;;;;;;;;;;25.30;57.40;;;;;;4939813;28;19937;-76
2023/05/31 14:17:07;;;;;;;;;;;25.40;57.70;;;;;;4937704;28;20479;-76
2023/05/31 14:19:34;;;;;;;;;;;25.70;58.00;;;;;;4947973;28;19922;-75
2023/05/31 14:22:12;;;;;;;;;;;26.00;57.90;;;;;;4937940;28;19924;-76
2023/05/31 14:24:41;;;;;;;;;;;26.30;57.80;;;;;;4947560;28;19970;-75
2023/05/31 14:27:07;;;;;;;;;;;25.70;57.80;;;;;;4938659;28;19914;-72
2023/05/31 14:29:37;;;;;;;;;;;25.60;57.40;;;;;;4951495;28;20383;-77
2023/05/31 14:32:03;;;;;;;;;;;25.40;58.80;;;;;;4933762;28;20696;-73
2023/05/31 14:34:34;;;;;;;;;;;25.30;59.10;;;;;;4933046;28;19942;-74
2023/05/31 14:36:59;;;;;;;;;;;25.50;59.20;;;;;;4937332;28;19993;-74
2023/05/31 14:39:32;;;;;;;;;;;25.60;58.20;;;;;;4935890;28;20009;-74
2023/05/31 14:41:59;;;;;;;;;;;25.50;58.40;;;;;;4950837;28;19918;-74
2023/05/31 14:44:25;;;;;;;;;;;25.30;58.70;;;;;;4952568;28;19917;-74
2023/05/31 14:46:57;;;;;;;;;;;25.50;58.10;;;;;;4931080;28;19915;-74
2023/05/31 14:49:23;;;;;;;;;;;25.50;58.60;;;;;;4944762;28;19915;-75
2023/05/31 14:51:57;;;;;;;;;;;25.40;58.30;;;;;;4952073;28;19937;-74
2023/05/31 14:54:25;;;;;;;;;;;25.40;58.50;;;;;;4935328;28;20009;-80
2023/05/31 14:56:58;;;;;;;;;;;25.50;58.20;;;;;;4954823;28;19993;-77
2023/05/31 15:58:57;;;;;;;;;;;24.50;57.80;;;;;;5922356;23;19924;-81
2023/05/31 16:04:24;;;;;;;;;;;24.50;57.40;;;;;;5923558;23;19937;-81
2023/05/31 16:06:50;;;;;;;;;;;24.50;57.50;;;;;;4992329;28;20422;-78
2023/05/31 16:09:15;;;;;;;;;;;24.30;57.70;;;;;;4996460;28;19921;-70
2023/05/31 16:11:44;;;;;;;;;;;24.40;57.10;;;;;;4974105;28;20003;-72
2023/05/31 16:14:11;;;;;;;;;;;24.50;56.90;;;;;;4985325;28;20001;-72
2023/05/31 16:16:36;;;;;;;;;;;24.60;56.60;;;;;;4987272;28;20378;-71
2023/05/31 16:19:03;;;;;;;;;;;24.40;57.10;;;;;;4987730;28;19918;-71
2023/05/31 16:21:31;;;;;;;;;;;24.40;56.90;;;;;;4969465;28;19914;-71
2023/05/31 16:23:57;;;;;;;;;;;24.40;57.10;;;;;;4951179;28;20363;-72
2023/05/31 16:26:23;;;;;;;;;;;24.30;57.00;;;;;;4969550;28;19964;-72
2023/05/31 16:28:57;;;;;;;;;;;24.30;57.10;;;;;;4971705;28;20002;-72
2023/05/31 16:31:24;;;;;;;;;;;24.30;56.60;;;;;;4962395;28;19910;-74
2023/05/31 16:33:51;;;;;;;;;;;24.10;57.30;;;;;;4954323;28;20347;-76
2023/05/31 16:36:16;;;;;;;;;;;24.10;57.00;;;;;;4951044;28;19917;-74
2023/05/31 16:38:43;;;;;;;;;;;24.00;56.80;;;;;;4964963;28;19914;-75
2023/05/31 16:41:10;;;;;;;;;;;23.90;56.60;;;;;;4950168;28;19922;-74
2023/05/31 16:43:37;;;;;;;;;;;23.90;56.40;;;;;;4969856;28;19957;-74
2023/05/31 16:46:07;;;;;;;;;;;24.00;56.90;;;;;;4967548;28;19969;-74
2023/05/31 16:48:36;;;;;;;;;;;23.90;56.30;;;;;;4963900;28;19922;-74
2023/05/31 16:51:04;;;;;;;;;;;23.90;56.60;;;;;;4969268;28;19993;-74
2023/05/31 16:53:30;;;;;;;;;;;23.80;56.30;;;;;;4947181;28;19972;-75
2023/05/31 16:55:58;;;;;;;;;;;23.70;56.20;;;;;;4968623;28;19910;-76
2023/05/31 16:58:25;;;;;;;;;;;23.70;57.00;;;;;;4952973;28;20000;-75
2023/05/31 17:01:03;;;;;;;;;;;23.70;56.80;;;;;;4952518;28;19913;-75
2023/05/31 17:03:30;;;;;;;;;;;23.70;57.20;;;;;;4967881;28;19918;-74
2023/05/31 17:06:02;;;;;;;;;;;23.70;57.50;;;;;;4953101;28;19922;-75